createdAt,value
2022-12-22T00:00:05.892Z,98909.25
2022-12-22T00:00:37.296Z,98906.22
2022-12-22T00:01:08.695Z,98915.84
2022-12-22T00:01:42.302Z,98915.84
2022-12-22T00:02:18.078Z,98921.28
2022-12-22T00:02:49.817Z,98915.84
2022-12-22T00:03:21.453Z,98920.00
2022-12-22T00:03:53.087Z,98918.56
2022-12-22T00:04:24.515Z,98910.88
2022-12-22T00:04:55.951Z,98908.94
2022-12-22T00:05:27.281Z,98904.13
2022-12-22T00:05:58.632Z,98904.94
2022-12-22T00:06:30.075Z,98914.22
2022-12-22T00:07:01.451Z,98906.53
2022-12-22T00:07:32.866Z,98907.34
2022-12-22T00:08:04.243Z,98906.53
2022-12-22T00:08:35.616Z,98916.94
2022-12-22T00:09:07.081Z,98912.78
2022-12-22T00:09:38.443Z,98912.00
2022-12-22T00:10:09.810Z,98911.19
2022-12-22T00:10:41.242Z,98907.97
2022-12-22T00:11:12.651Z,98900.59
2022-12-22T00:11:44.045Z,98910.69
2022-12-22T00:12:15.611Z,98910.38
2022-12-22T00:12:46.979Z,98906.03
2022-12-22T00:13:18.414Z,98908.13
2022-12-22T00:13:49.797Z,98912.00
2022-12-22T00:14:21.247Z,98909.56
2022-12-22T00:14:52.688Z,98906.53
2022-12-22T00:15:24.062Z,98900.28
2022-12-22T00:15:55.468Z,98901.09
2022-12-22T00:16:26.949Z,98895.94
2022-12-22T00:16:58.388Z,98901.09
2022-12-22T00:17:29.779Z,98894.03
2022-12-22T00:18:01.183Z,98894.81
2022-12-22T00:18:32.642Z,98890.97
2022-12-22T00:19:04.074Z,98891.78
2022-12-22T00:19:35.481Z,98890.81
2022-12-22T00:20:06.905Z,98891.63
2022-12-22T00:20:38.260Z,98889.38
2022-12-22T00:21:09.627Z,98886.66
2022-12-22T00:21:41.019Z,98892.59
2022-12-22T00:22:12.545Z,98872.69
2022-12-22T00:22:43.906Z,98878.47
2022-12-22T00:23:15.284Z,98874.63
2022-12-22T00:23:46.639Z,98876.53
2022-12-22T00:24:18.100Z,98880.06
2022-12-22T00:24:49.467Z,98881.50
2022-12-22T00:25:20.845Z,98883.44
2022-12-22T00:25:52.333Z,98877.97
2022-12-22T00:26:23.711Z,98875.25
2022-12-22T00:26:55.153Z,98881.81
2022-12-22T00:27:26.555Z,98883.75
2022-12-22T00:27:57.959Z,98873.81
2022-12-22T00:28:29.351Z,98869.97
2022-12-22T00:29:00.700Z,98869.81
2022-12-22T00:29:32.147Z,98869.81
2022-12-22T00:30:04.136Z,98865.16
2022-12-22T00:30:35.571Z,98864.34
2022-12-22T00:31:07.068Z,98865.94
2022-12-22T00:31:38.531Z,98863.53
2022-12-22T00:32:09.880Z,98866.75
2022-12-22T00:32:41.289Z,98868.69
2022-12-22T00:33:12.733Z,98865.16
2022-12-22T00:33:44.104Z,98870.59
2022-12-22T00:34:15.510Z,98867.56
2022-12-22T00:34:46.942Z,98873.00
2022-12-22T00:35:18.308Z,98865.16
2022-12-22T00:35:49.722Z,98864.03
2022-12-22T00:36:21.256Z,98865.16
2022-12-22T00:36:52.776Z,98862.44
2022-12-22T00:37:24.154Z,98862.44
2022-12-22T00:37:55.509Z,98862.09
2022-12-22T00:38:26.873Z,98861.31
2022-12-22T00:38:58.236Z,98867.56
2022-12-22T00:39:29.593Z,98868.38
2022-12-22T00:40:01.005Z,98864.84
2022-12-22T00:40:32.378Z,98859.69
2022-12-22T00:41:03.780Z,98863.53
2022-12-22T00:41:35.119Z,98866.28
2022-12-22T00:42:06.515Z,98867.06
2022-12-22T00:42:37.935Z,98866.28
2022-12-22T00:43:09.327Z,98858.09
2022-12-22T00:43:40.722Z,98862.75
2022-12-22T00:44:12.109Z,98862.75
2022-12-22T00:44:43.472Z,98860.81
2022-12-22T00:45:14.900Z,98859.69
2022-12-22T00:45:46.292Z,98862.09
2022-12-22T00:46:17.810Z,98855.84
2022-12-22T00:46:49.260Z,98862.44
2022-12-22T00:47:20.680Z,98865.16
2022-12-22T00:47:52.033Z,98856.97
2022-12-22T00:48:23.476Z,98859.69
2022-12-22T00:48:54.853Z,98851.84
2022-12-22T00:49:26.235Z,98858.09
2022-12-22T00:49:57.657Z,98858.91
2022-12-22T00:50:29.004Z,98859.38
2022-12-22T00:51:00.392Z,98855.06
2022-12-22T00:51:31.843Z,98856.97
2022-12-22T00:52:03.347Z,98858.91
2022-12-22T00:52:34.729Z,98860.50
2022-12-22T00:53:06.098Z,98858.91
2022-12-22T00:53:37.480Z,98852.31
2022-12-22T00:54:09.040Z,98859.69
2022-12-22T00:54:40.566Z,98852.63
2022-12-22T00:55:11.941Z,98851.84
2022-12-22T00:55:43.318Z,98849.91
2022-12-22T00:56:14.700Z,98853.75
2022-12-22T00:56:46.108Z,98861.63
2022-12-22T00:57:17.533Z,98858.09
2022-12-22T00:57:48.962Z,98855.38
2022-12-22T00:58:20.332Z,98852.16
2022-12-22T00:58:51.714Z,98857.28
2022-12-22T00:59:23.153Z,98851.84
2022-12-22T00:59:54.538Z,98847.19
2022-12-22T01:00:25.968Z,98848.47
2022-12-22T01:00:57.352Z,98843.66
2022-12-22T01:01:28.813Z,98849.09
2022-12-22T01:02:00.431Z,98842.84
2022-12-22T01:02:32.162Z,98842.06
2022-12-22T01:03:03.761Z,98841.72
2022-12-22T01:03:35.327Z,98840.63
2022-12-22T01:04:06.787Z,98843.34
2022-12-22T01:04:38.212Z,98844.16
2022-12-22T01:05:09.607Z,98844.47
2022-12-22T01:05:40.973Z,98844.47
2022-12-22T01:06:12.567Z,98838.53
2022-12-22T01:06:44.005Z,98847.81
2022-12-22T01:07:15.437Z,98840.94
2022-12-22T01:07:46.904Z,98844.78
2022-12-22T01:08:18.295Z,98843.66
2022-12-22T01:08:49.647Z,98839.81
2022-12-22T01:09:21.080Z,98846.38
2022-12-22T01:09:52.448Z,98840.13
2022-12-22T01:10:23.853Z,98845.56
2022-12-22T01:10:55.303Z,98835.47
2022-12-22T01:11:26.734Z,98836.28
2022-12-22T01:11:58.086Z,98836.78
2022-12-22T01:12:29.973Z,98833.25
2022-12-22T01:13:01.375Z,98844.47
2022-12-22T01:13:32.742Z,98834.66
2022-12-22T01:14:04.120Z,98836.78
2022-12-22T01:14:35.560Z,98835.16
2022-12-22T01:15:06.986Z,98837.41
2022-12-22T01:15:38.373Z,98840.63
2022-12-22T01:16:09.871Z,98836.78
2022-12-22T01:16:41.303Z,98831.94
2022-12-22T01:17:12.700Z,98831.94
2022-12-22T01:17:44.063Z,98822.97
2022-12-22T01:18:15.491Z,98828.41
2022-12-22T01:18:46.830Z,98825.38
2022-12-22T01:19:18.276Z,98823.44
2022-12-22T01:19:49.647Z,98819.44
2022-12-22T01:20:21.094Z,98824.41
2022-12-22T01:20:52.443Z,98815.59
2022-12-22T01:21:23.842Z,98817.50
2022-12-22T01:21:55.263Z,98818.63
2022-12-22T01:22:26.626Z,98808.53
2022-12-22T01:22:57.961Z,98806.94
2022-12-22T01:23:29.390Z,98804.69
2022-12-22T01:24:00.841Z,98806.13
2022-12-22T01:24:32.342Z,98803.88
2022-12-22T01:25:03.741Z,98810.13
2022-12-22T01:25:35.128Z,98812.88
2022-12-22T01:26:06.567Z,98802.75
2022-12-22T01:26:37.989Z,98806.59
2022-12-22T01:27:09.401Z,98805.50
2022-12-22T01:27:40.783Z,98803.88
2022-12-22T01:28:12.177Z,98806.59
2022-12-22T01:28:43.735Z,98801.16
2022-12-22T01:29:15.218Z,98800.03
2022-12-22T01:29:46.660Z,98802.75
2022-12-22T01:30:18.169Z,98808.22
2022-12-22T01:30:49.535Z,98808.84
2022-12-22T01:31:20.943Z,98799.56
2022-12-22T01:31:52.292Z,98798.75
2022-12-22T01:32:23.692Z,98804.19
2022-12-22T01:32:55.109Z,98802.91
2022-12-22T01:33:26.470Z,98802.59
2022-12-22T01:33:57.901Z,98796.81
2022-12-22T01:34:29.268Z,98803.09
2022-12-22T01:35:00.675Z,98798.75
2022-12-22T01:35:32.119Z,98798.75
2022-12-22T01:36:03.604Z,98800.34
2022-12-22T01:36:35.080Z,98797.31
2022-12-22T01:37:06.518Z,98797.31
2022-12-22T01:37:37.879Z,98789.94
2022-12-22T01:38:09.295Z,98792.66
2022-12-22T01:38:40.714Z,98795.38
2022-12-22T01:39:12.091Z,98797.63
2022-12-22T01:39:43.437Z,98797.63
2022-12-22T01:40:14.835Z,98799.22
2022-12-22T01:40:46.245Z,98797.63
2022-12-22T01:41:17.639Z,98791.84
2022-12-22T01:41:49.048Z,98797.63
2022-12-22T01:42:20.507Z,98801.47
2022-12-22T01:42:51.917Z,98795.22
2022-12-22T01:43:23.345Z,98795.69
2022-12-22T01:43:54.787Z,98796.81
2022-12-22T01:44:26.115Z,98801.16
2022-12-22T01:44:57.517Z,98797.31
2022-12-22T01:45:28.872Z,98800.34
2022-12-22T01:46:00.292Z,98794.09
2022-12-22T01:46:31.729Z,98798.13
2022-12-22T01:47:03.134Z,98795.69
2022-12-22T01:47:34.558Z,98792.19
2022-12-22T01:48:06.195Z,98794.09
2022-12-22T01:48:37.630Z,98795.69
2022-12-22T01:49:09.105Z,98786.72
2022-12-22T01:49:40.556Z,98791.84
2022-12-22T01:50:11.931Z,98792.19
2022-12-22T01:50:43.363Z,98791.06
2022-12-22T01:51:14.835Z,98784.81
2022-12-22T01:51:46.220Z,98778.53
2022-12-22T01:52:17.612Z,98784.00
2022-12-22T01:52:48.999Z,98786.72
2022-12-22T01:53:20.345Z,98784.00
2022-12-22T01:53:51.680Z,98781.59
2022-12-22T01:54:23.262Z,98778.53
2022-12-22T01:54:54.649Z,98783.19
2022-12-22T01:55:26.068Z,98780.94
2022-12-22T01:55:57.455Z,98779.34
2022-12-22T01:56:28.808Z,98778.53
2022-12-22T01:57:00.287Z,98776.31
2022-12-22T01:57:31.664Z,98770.38
2022-12-22T01:58:03.151Z,98774.69
2022-12-22T01:58:34.548Z,98767.63
2022-12-22T01:59:05.979Z,98775.03
2022-12-22T01:59:37.570Z,98772.28
2022-12-22T02:00:09.020Z,98776.63
2022-12-22T02:00:40.394Z,98772.28
2022-12-22T02:01:11.742Z,98771.50
2022-12-22T02:01:43.241Z,98769.56
2022-12-22T02:02:14.852Z,98773.09
2022-12-22T02:02:46.487Z,98768.44
2022-12-22T02:03:18.032Z,98771.50
2022-12-22T02:03:49.474Z,98769.88
2022-12-22T02:04:20.950Z,98768.75
2022-12-22T02:04:52.370Z,98773.09
2022-12-22T02:05:23.731Z,98764.44
2022-12-22T02:05:55.182Z,98766.03
2022-12-22T02:06:26.562Z,98763.31
2022-12-22T02:07:00.189Z,98768.75
2022-12-22T02:07:31.923Z,98765.56
2022-12-22T02:08:03.282Z,98764.44
2022-12-22T02:08:34.668Z,98764.44
2022-12-22T02:09:06.020Z,98758.97
2022-12-22T02:09:37.404Z,98764.91
2022-12-22T02:10:08.899Z,98754.81
2022-12-22T02:10:40.300Z,98764.13
2022-12-22T02:11:11.645Z,98752.09
2022-12-22T02:11:43.046Z,98751.28
2022-12-22T02:12:14.611Z,98759.47
2022-12-22T02:12:46.226Z,98755.13
2022-12-22T02:13:17.629Z,98752.72
2022-12-22T02:13:49.109Z,98750.47
2022-12-22T02:14:24.754Z,98754.81
2022-12-22T02:14:59.242Z,98746.94
2022-12-22T02:15:30.691Z,98749.34
2022-12-22T02:16:02.127Z,98750.97
2022-12-22T02:16:33.618Z,98750.47
2022-12-22T02:17:05.073Z,98749.84
2022-12-22T02:17:36.405Z,98744.72
2022-12-22T02:18:07.840Z,98746.63
2022-12-22T02:18:39.298Z,98747.44
2022-12-22T02:19:10.698Z,98740.88
2022-12-22T02:19:42.044Z,98745.19
2022-12-22T02:20:13.450Z,98738.13
2022-12-22T02:20:44.854Z,98739.56
2022-12-22T02:21:16.264Z,98740.38
2022-12-22T02:21:47.652Z,98735.72
2022-12-22T02:22:19.071Z,98735.72
2022-12-22T02:22:50.418Z,98734.13
2022-12-22T02:23:21.824Z,98732.53
2022-12-22T02:23:53.188Z,98731.41
2022-12-22T02:24:24.762Z,98731.41
2022-12-22T02:24:56.214Z,98728.66
2022-12-22T02:25:27.628Z,98728.34
2022-12-22T02:25:59.044Z,98718.56
2022-12-22T02:26:30.396Z,98724.03
2022-12-22T02:27:01.832Z,98722.41
2022-12-22T02:27:33.258Z,98718.56
2022-12-22T02:28:04.688Z,98718.56
2022-12-22T02:28:36.049Z,98720.19
2022-12-22T02:29:07.421Z,98722.09
2022-12-22T02:29:38.791Z,98719.84
2022-12-22T02:30:11.082Z,98716.31
2022-12-22T02:30:42.465Z,98714.72
2022-12-22T02:31:13.925Z,98711.50
2022-12-22T02:31:45.389Z,98717.44
2022-12-22T02:32:17.719Z,98718.88
2022-12-22T02:32:49.141Z,98717.78
2022-12-22T02:33:20.506Z,98706.88
2022-12-22T02:33:51.860Z,98712.00
2022-12-22T02:34:23.275Z,98709.91
2022-12-22T02:34:54.622Z,98703.34
2022-12-22T02:35:25.983Z,98702.22
2022-12-22T02:35:57.341Z,98706.88
2022-12-22T02:36:28.944Z,98705.41
2022-12-22T02:37:00.382Z,98703.34
2022-12-22T02:37:31.867Z,98699.81
2022-12-22T02:38:03.459Z,98701.41
2022-12-22T02:38:34.905Z,98698.38
2022-12-22T02:39:06.266Z,98699.50
2022-12-22T02:39:37.683Z,98699.16
2022-12-22T02:40:09.032Z,98695.16
2022-12-22T02:40:41.792Z,98694.03
2022-12-22T02:41:13.401Z,98699.50
2022-12-22T02:41:44.832Z,98698.03
2022-12-22T02:42:16.176Z,98696.13
2022-12-22T02:42:47.532Z,98692.13
2022-12-22T02:43:18.887Z,98697.56
2022-12-22T02:43:50.227Z,98691.00
2022-12-22T02:44:21.596Z,98684.25
2022-12-22T02:44:52.959Z,98692.91
2022-12-22T02:45:24.323Z,98690.50
2022-12-22T02:45:55.796Z,98688.59
2022-12-22T02:46:27.182Z,98687.47
2022-12-22T02:46:58.829Z,98689.72
2022-12-22T02:47:30.265Z,98690.19
2022-12-22T02:48:01.599Z,98689.06
2022-12-22T02:48:33.016Z,98689.72
2022-12-22T02:49:04.439Z,98682.00
2022-12-22T02:49:35.811Z,98688.59
2022-12-22T02:50:07.207Z,98684.72
2022-12-22T02:50:38.609Z,98683.63
2022-12-22T02:51:09.968Z,98680.09
2022-12-22T02:51:41.336Z,98682.00
2022-12-22T02:52:12.783Z,98686.97
2022-12-22T02:52:44.221Z,98678.00
2022-12-22T02:53:15.590Z,98683.13
2022-12-22T02:53:47.089Z,98675.75
2022-12-22T02:54:18.859Z,98684.25
2022-12-22T02:54:50.332Z,98671.09
2022-12-22T02:55:21.716Z,98678.47
2022-12-22T02:55:53.111Z,98675.75
2022-12-22T02:56:24.645Z,98676.56
2022-12-22T02:56:56.187Z,98678.16
2022-12-22T02:57:27.685Z,98668.06
2022-12-22T02:57:59.109Z,98665.66
2022-12-22T02:58:30.476Z,98664.84
2022-12-22T02:59:01.837Z,98663.72
2022-12-22T02:59:33.205Z,98667.56
2022-12-22T03:00:04.541Z,98659.56
2022-12-22T03:00:35.925Z,98658.75
2022-12-22T03:01:07.515Z,98657.16
2022-12-22T03:01:39.077Z,98657.16
2022-12-22T03:02:10.778Z,98653.63
2022-12-22T03:02:42.621Z,98657.47
2022-12-22T03:03:14.319Z,98657.47
2022-12-22T03:03:45.993Z,98661.31
2022-12-22T03:04:17.454Z,98653.16
2022-12-22T03:04:48.846Z,98660.19
2022-12-22T03:05:20.204Z,98664.38
2022-12-22T03:05:51.612Z,98661.00
2022-12-22T03:06:22.990Z,98663.25
2022-12-22T03:06:54.395Z,98661.31
2022-12-22T03:07:25.821Z,98660.19
2022-12-22T03:07:57.290Z,98653.16
2022-12-22T03:08:28.678Z,98657.31
2022-12-22T03:09:00.107Z,98651.06
2022-12-22T03:09:31.481Z,98648.81
2022-12-22T03:10:02.846Z,98643.38
2022-12-22T03:10:34.312Z,98648.50
2022-12-22T03:11:05.690Z,98644.16
2022-12-22T03:11:37.088Z,98648.50
2022-12-22T03:12:08.627Z,98643.03
2022-12-22T03:12:40.195Z,98641.44
2022-12-22T03:13:11.612Z,98643.38
2022-12-22T03:13:42.999Z,98641.91
2022-12-22T03:14:14.364Z,98647.38
2022-12-22T03:14:45.788Z,98641.75
2022-12-22T03:15:17.177Z,98642.25
2022-12-22T03:15:48.608Z,98645.44
2022-12-22T03:16:20.338Z,98638.88
2022-12-22T03:16:51.753Z,98646.56
2022-12-22T03:17:23.194Z,98646.25
2022-12-22T03:17:54.594Z,98646.25
2022-12-22T03:18:25.946Z,98641.13
2022-12-22T03:18:57.414Z,98641.13
2022-12-22T03:19:28.954Z,98642.25
2022-12-22T03:20:00.327Z,98649.28
2022-12-22T03:20:31.747Z,98638.38
2022-12-22T03:21:03.149Z,98638.38
2022-12-22T03:21:34.524Z,98639.50
2022-12-22T03:22:05.906Z,98639.19
2022-12-22T03:22:37.270Z,98641.13
2022-12-22T03:23:08.609Z,98641.13
2022-12-22T03:23:40.036Z,98641.13
2022-12-22T03:24:11.489Z,98632.13
2022-12-22T03:24:43.032Z,98633.59
2022-12-22T03:25:14.407Z,98627.81
2022-12-22T03:25:45.771Z,98633.59
2022-12-22T03:26:17.211Z,98624.28
2022-12-22T03:26:48.566Z,98631.81
2022-12-22T03:27:19.951Z,98629.09
2022-12-22T03:27:51.318Z,98625.09
2022-12-22T03:28:22.758Z,98621.56
2022-12-22T03:28:54.124Z,98623.47
2022-12-22T03:29:25.475Z,98621.56
2022-12-22T03:29:56.890Z,98618.84
2022-12-22T03:30:28.302Z,98626.53
2022-12-22T03:30:59.753Z,98623.47
2022-12-22T03:31:31.243Z,98619.63
2022-12-22T03:32:02.678Z,98627.81
2022-12-22T03:32:34.060Z,98621.22
2022-12-22T03:33:05.520Z,98616.09
2022-12-22T03:33:36.894Z,98619.31
2022-12-22T03:34:08.251Z,98621.56
2022-12-22T03:34:39.682Z,98613.38
2022-12-22T03:35:11.081Z,98616.09
2022-12-22T03:35:42.463Z,98611.44
2022-12-22T03:36:14.002Z,98610.34
2022-12-22T03:36:45.406Z,98608.72
2022-12-22T03:37:16.796Z,98616.91
2022-12-22T03:37:48.170Z,98613.06
2022-12-22T03:38:19.544Z,98604.88
2022-12-22T03:38:50.949Z,98612.25
2022-12-22T03:39:22.327Z,98609.53
2022-12-22T03:39:53.768Z,98609.84
2022-12-22T03:40:25.249Z,98609.22
2022-12-22T03:40:56.621Z,98607.13
2022-12-22T03:41:27.958Z,98610.34
2022-12-22T03:41:59.322Z,98609.53
2022-12-22T03:42:30.748Z,98597.34
2022-12-22T03:43:02.148Z,98600.88
2022-12-22T03:43:33.513Z,98604.41
2022-12-22T03:44:04.965Z,98600.22
2022-12-22T03:44:36.330Z,98600.22
2022-12-22T03:45:07.700Z,98598.16
2022-12-22T03:45:39.293Z,98603.28
2022-12-22T03:46:10.683Z,98605.69
2022-12-22T03:46:42.132Z,98600.88
2022-12-22T03:47:13.591Z,98592.38
2022-12-22T03:47:44.999Z,98598.63
2022-12-22T03:48:16.536Z,98594.28
2022-12-22T03:48:47.927Z,98593.97
2022-12-22T03:49:19.263Z,98597.97
2022-12-22T03:49:50.701Z,98595.56
2022-12-22T03:50:22.109Z,98593.16
2022-12-22T03:50:53.539Z,98597.03
2022-12-22T03:51:24.892Z,98589.66
2022-12-22T03:51:56.283Z,98595.09
2022-12-22T03:52:27.754Z,98593.16
2022-12-22T03:52:59.133Z,98593.16
2022-12-22T03:53:30.563Z,98585.31
2022-12-22T03:54:02.035Z,98589.31
2022-12-22T03:54:33.436Z,98585.00
2022-12-22T03:55:04.823Z,98588.03
2022-12-22T03:55:36.206Z,98579.06
2022-12-22T03:56:08.224Z,98587.41
2022-12-22T03:56:39.759Z,98586.59
2022-12-22T03:57:11.160Z,98585.78
2022-12-22T03:57:42.542Z,98585.78
2022-12-22T03:58:13.954Z,98583.06
2022-12-22T03:58:45.397Z,98583.88
2022-12-22T03:59:16.767Z,98586.59
2022-12-22T03:59:48.146Z,98577.63
2022-12-22T04:00:19.489Z,98577.13
2022-12-22T04:00:50.976Z,98576.00
2022-12-22T04:01:22.478Z,98577.28
2022-12-22T04:01:53.978Z,98577.63
2022-12-22T04:02:25.548Z,98571.03
2022-12-22T04:02:57.047Z,98574.56
2022-12-22T04:03:28.525Z,98572.66
2022-12-22T04:03:59.921Z,98573.44
2022-12-22T04:04:31.325Z,98568.31
2022-12-22T04:05:02.716Z,98569.91
2022-12-22T04:05:34.089Z,98573.78
2022-12-22T04:06:05.561Z,98569.59
2022-12-22T04:06:36.962Z,98570.72
2022-12-22T04:07:08.362Z,98575.69
2022-12-22T04:07:39.743Z,98572.97
2022-12-22T04:08:11.095Z,98564.78
2022-12-22T04:08:42.513Z,98574.09
2022-12-22T04:09:13.891Z,98567.19
2022-12-22T04:09:45.279Z,98566.72
2022-12-22T04:10:17.520Z,98566.72
2022-12-22T04:10:48.860Z,98568.31
2022-12-22T04:11:20.244Z,98562.88
2022-12-22T04:11:51.633Z,98573.78
2022-12-22T04:12:23.124Z,98567.19
2022-12-22T04:12:54.598Z,98563.66
2022-12-22T04:13:26.011Z,98566.06
2022-12-22T04:13:57.365Z,98561.75
2022-12-22T04:14:33.842Z,98564.78
2022-12-22T04:15:06.178Z,98562.06
2022-12-22T04:15:37.563Z,98562.38
2022-12-22T04:16:09.013Z,98563.19
2022-12-22T04:16:40.450Z,98562.88
2022-12-22T04:17:11.876Z,98562.06
2022-12-22T04:17:43.276Z,98561.25
2022-12-22T04:18:14.785Z,98554.22
2022-12-22T04:18:46.218Z,98554.69
2022-12-22T04:19:17.609Z,98559.34
2022-12-22T04:19:49.052Z,98561.25
2022-12-22T04:20:20.423Z,98554.34
2022-12-22T04:20:51.835Z,98556.28
2022-12-22T04:21:23.236Z,98549.38
2022-12-22T04:21:54.654Z,98559.34
2022-12-22T04:22:26.127Z,98548.09
2022-12-22T04:22:57.594Z,98561.75
2022-12-22T04:23:29.011Z,98553.56
2022-12-22T04:24:00.409Z,98551.16
2022-12-22T04:24:31.799Z,98551.63
2022-12-22T04:25:03.178Z,98554.34
2022-12-22T04:25:34.537Z,98548.44
2022-12-22T04:26:05.901Z,98552.75
2022-12-22T04:26:37.283Z,98551.16
2022-12-22T04:27:08.674Z,98554.34
2022-12-22T04:27:40.046Z,98554.34
2022-12-22T04:28:11.515Z,98552.13
2022-12-22T04:28:42.925Z,98552.28
2022-12-22T04:29:14.380Z,98547.31
2022-12-22T04:29:45.781Z,98547.31
2022-12-22T04:30:17.295Z,98550.03
2022-12-22T04:30:48.691Z,98549.56
2022-12-22T04:31:20.128Z,98550.84
2022-12-22T04:31:51.662Z,98546.03
2022-12-22T04:32:23.063Z,98552.28
2022-12-22T04:32:54.434Z,98546.50
2022-12-22T04:33:25.935Z,98548.44
2022-12-22T04:33:57.276Z,98553.88
2022-12-22T04:34:28.595Z,98550.84
2022-12-22T04:35:00.088Z,98547.31
2022-12-22T04:35:31.484Z,98550.34
2022-12-22T04:36:03.054Z,98549.22
2022-12-22T04:36:34.430Z,98546.81
2022-12-22T04:37:16.493Z,98543.31
2022-12-22T04:37:48.329Z,98544.44
2022-12-22T04:38:19.697Z,98546.81
2022-12-22T04:38:51.225Z,98548.75
2022-12-22T04:39:22.616Z,98544.91
2022-12-22T04:39:54.024Z,98553.09
2022-12-22T04:40:25.416Z,98549.41
2022-12-22T04:40:56.806Z,98550.69
2022-12-22T04:41:28.192Z,98544.91
2022-12-22T04:41:59.541Z,98541.38
2022-12-22T04:42:30.937Z,98544.09
2022-12-22T04:43:02.363Z,98548.09
2022-12-22T04:43:33.733Z,98542.97
2022-12-22T04:44:05.115Z,98547.31
2022-12-22T04:44:36.592Z,98539.13
2022-12-22T04:45:07.991Z,98544.09
2022-12-22T04:45:39.520Z,98538.31
2022-12-22T04:46:10.994Z,98536.41
2022-12-22T04:46:42.360Z,98541.84
2022-12-22T04:47:13.726Z,98540.25
2022-12-22T04:47:45.097Z,98534.00
2022-12-22T04:48:16.525Z,98537.19
2022-12-22T04:48:47.933Z,98534.81
2022-12-22T04:49:19.289Z,98537.19
2022-12-22T04:49:50.714Z,98526.31
2022-12-22T04:50:22.173Z,98536.41
2022-12-22T04:50:53.556Z,98535.59
2022-12-22T04:51:25.018Z,98525.50
2022-12-22T04:51:56.427Z,98527.44
2022-12-22T04:52:27.867Z,98527.44
2022-12-22T04:52:59.231Z,98538.00
2022-12-22T04:53:30.587Z,98533.69
2022-12-22T04:54:02.113Z,98536.72
2022-12-22T04:54:33.651Z,98523.09
2022-12-22T04:55:05.038Z,98525.50
2022-12-22T04:55:36.389Z,98526.63
2022-12-22T04:56:07.790Z,98529.03
2022-12-22T04:56:39.187Z,98528.56
2022-12-22T04:57:10.589Z,98532.06
2022-12-22T04:57:42.008Z,98530.47
2022-12-22T04:58:13.448Z,98533.19
2022-12-22T04:58:44.789Z,98526.63
2022-12-22T04:59:16.261Z,98531.28
2022-12-22T04:59:47.653Z,98523.91
2022-12-22T05:00:19.043Z,98524.22
2022-12-22T05:00:50.431Z,98526.63
2022-12-22T05:01:22.043Z,98529.03
2022-12-22T05:01:53.546Z,98527.09
2022-12-22T05:02:25.189Z,98522.78
2022-12-22T05:02:56.746Z,98520.03
2022-12-22T05:03:28.251Z,98520.38
2022-12-22T05:03:59.667Z,98519.25
2022-12-22T05:04:31.040Z,98532.06
2022-12-22T05:05:02.393Z,98519.91
2022-12-22T05:05:33.771Z,98525.66
2022-12-22T05:06:05.326Z,98528.88
2022-12-22T05:06:36.799Z,98521.97
2022-12-22T05:07:08.170Z,98522.78
2022-12-22T05:07:39.569Z,98523.09
2022-12-22T05:08:11.029Z,98517.97
2022-12-22T05:08:42.393Z,98517.31
2022-12-22T05:09:13.761Z,98514.13
2022-12-22T05:09:45.146Z,98520.38
2022-12-22T05:10:16.492Z,98518.44
2022-12-22T05:10:47.944Z,98518.44
2022-12-22T05:11:19.321Z,98513.78
2022-12-22T05:11:50.787Z,98516.84
2022-12-22T05:12:22.308Z,98510.91
2022-12-22T05:12:53.715Z,98505.13
2022-12-22T05:13:25.136Z,98512.19
2022-12-22T05:13:59.652Z,98513.78
2022-12-22T05:14:33.459Z,98511.88
2022-12-22T05:15:05.073Z,98513.00
2022-12-22T05:15:36.457Z,98511.06
2022-12-22T05:16:07.885Z,98501.75
2022-12-22T05:16:39.420Z,98505.94
2022-12-22T05:17:10.898Z,98507.88
2022-12-22T05:17:42.308Z,98508.19
2022-12-22T05:18:13.698Z,98511.88
2022-12-22T05:18:45.089Z,98504.81
2022-12-22T05:19:16.487Z,98502.88
2022-12-22T05:19:47.886Z,98507.53
2022-12-22T05:20:19.245Z,98506.75
2022-12-22T05:20:50.682Z,98501.28
2022-12-22T05:21:22.101Z,98499.38
2022-12-22T05:21:53.462Z,98504.50
2022-12-22T05:22:24.870Z,98499.84
2022-12-22T05:22:56.259Z,98498.25
2022-12-22T05:23:27.643Z,98495.84
2022-12-22T05:23:59.027Z,98493.91
2022-12-22T05:24:31.029Z,98489.59
2022-12-22T05:25:02.425Z,98494.72
2022-12-22T05:25:35.585Z,98495.84
2022-12-22T05:26:07.150Z,98492.31
2022-12-22T05:26:38.546Z,98491.50
2022-12-22T05:27:11.031Z,98495.19
2022-12-22T05:27:42.456Z,98487.66
2022-12-22T05:28:13.833Z,98487.66
2022-12-22T05:28:45.220Z,98493.91
2022-12-22T05:29:16.592Z,98485.72
2022-12-22T05:29:48.019Z,98490.06
2022-12-22T05:30:19.376Z,98483.34
2022-12-22T05:30:50.832Z,98480.28
2022-12-22T05:31:22.379Z,98481.41
2022-12-22T05:31:53.824Z,98490.72
2022-12-22T05:32:25.201Z,98484.47
2022-12-22T05:32:56.583Z,98480.59
2022-12-22T05:33:27.952Z,98483.19
2022-12-22T05:33:59.348Z,98483.34
2022-12-22T05:34:30.714Z,98486.84
2022-12-22T05:35:02.093Z,98490.38
2022-12-22T05:35:33.546Z,98485.72
2022-12-22T05:36:05.440Z,98480.28
2022-12-22T05:36:36.819Z,98487.66
2022-12-22T05:37:08.187Z,98487.00
2022-12-22T05:37:39.590Z,98478.84
2022-12-22T05:38:11.018Z,98475.94
2022-12-22T05:38:42.451Z,98479.16
2022-12-22T05:39:13.904Z,98487.66
2022-12-22T05:39:45.266Z,98486.06
2022-12-22T05:40:16.664Z,98482.22
2022-12-22T05:40:48.025Z,98477.88
2022-12-22T05:41:19.427Z,98480.59
2022-12-22T05:41:50.815Z,98484.94
2022-12-22T05:42:22.207Z,98482.53
2022-12-22T05:42:53.575Z,98478.84
2022-12-22T05:43:25.071Z,98479.34
2022-12-22T05:43:56.471Z,98479.81
2022-12-22T05:44:27.886Z,98484.94
2022-12-22T05:44:59.248Z,98485.72
2022-12-22T05:45:30.618Z,98478.69
2022-12-22T05:46:02.061Z,98489.25
2022-12-22T05:46:33.466Z,98484.94
2022-12-22T05:47:04.856Z,98489.59
2022-12-22T05:47:36.234Z,98493.44
2022-12-22T05:48:07.709Z,98482.84
2022-12-22T05:48:40.043Z,98488.31
2022-12-22T05:49:11.680Z,98488.47
2022-12-22T05:49:43.120Z,98486.84
2022-12-22T05:50:14.492Z,98483.66
2022-12-22T05:50:45.887Z,98483.34
2022-12-22T05:51:17.280Z,98491.19
2022-12-22T05:51:48.652Z,98486.84
2022-12-22T05:52:20.003Z,98484.94
2022-12-22T05:52:51.411Z,98491.19
2022-12-22T05:53:22.793Z,98482.53
2022-12-22T05:53:54.232Z,98482.22
2022-12-22T05:54:25.615Z,98481.41
2022-12-22T05:54:56.972Z,98479.81
2022-12-22T05:55:28.354Z,98477.88
2022-12-22T05:55:59.783Z,98484.13
2022-12-22T05:56:31.173Z,98485.72
2022-12-22T05:57:02.580Z,98486.06
2022-12-22T05:57:34.027Z,98484.59
2022-12-22T05:58:05.395Z,98486.53
2022-12-22T05:58:36.788Z,98481.88
2022-12-22T05:59:08.237Z,98488.94
2022-12-22T05:59:39.616Z,98490.06
2022-12-22T06:00:10.983Z,98490.38
2022-12-22T06:00:42.353Z,98482.53
2022-12-22T06:01:13.799Z,98485.72
2022-12-22T06:01:45.236Z,98484.94
2022-12-22T06:02:16.801Z,98484.13
2022-12-22T06:02:48.292Z,98487.34
2022-12-22T06:03:19.826Z,98487.66
2022-12-22T06:03:54.732Z,98489.59
2022-12-22T06:04:31.051Z,98490.84
2022-12-22T06:05:02.461Z,98489.59
2022-12-22T06:05:33.881Z,98484.94
2022-12-22T06:06:05.416Z,98489.59
2022-12-22T06:06:36.831Z,98490.38
2022-12-22T06:07:08.286Z,98491.50
2022-12-22T06:07:39.631Z,98499.03
2022-12-22T06:08:10.974Z,98491.19
2022-12-22T06:08:42.344Z,98488.13
2022-12-22T06:09:13.720Z,98493.59
2022-12-22T06:09:45.118Z,98483.34